Time;durP1;ratioP1;P1;durP2;ratioP2;P2;SDS_P1;SDS_P2;PMS_P1;PMS_P2;Temp;Humidity;BMP_temperature;BMP_pressure;BME280_temperature;BME280_humidity;BME280_pressure;Samples;Min_cycle;Max_cycle;Signal;HPM_P1;HPM_P2
2022/03/20 00:00:12;;;;;;;11.32;4.95;;;5.40;99.90;;;;;;5011184;28;20050;-74
2022/03/20 00:02:39;;;;;;;10.07;5.78;;;5.50;99.90;;;;;;5030230;28;20038;-74
2022/03/20 00:05:05;;;;;;;11.07;5.82;;;5.50;99.90;;;;;;5048497;28;20095;-74
2022/03/20 00:07:33;;;;;;;9.98;5.43;;;5.50;99.90;;;;;;5050691;28;20100;-73
2022/03/20 00:10:00;;;;;;;10.00;5.65;;;5.40;99.90;;;;;;5033099;28;20042;-74
2022/03/20 00:12:26;;;;;;;12.63;6.65;;;5.40;99.90;;;;;;5033329;28;20037;-73
2022/03/20 00:14:51;;;;;;;11.95;6.00;;;5.40;99.90;;;;;;5027216;28;20487;-74
2022/03/20 00:17:20;;;;;;;9.80;5.57;;;5.40;99.90;;;;;;5026679;28;20095;-73
2022/03/20 00:19:46;;;;;;;11.38;6.55;;;5.40;99.90;;;;;;5015879;28;20430;-73
2022/03/20 00:22:12;;;;;;;10.65;5.53;;;5.40;99.90;;;;;;5017457;28;20133;-74
2022/03/20 00:24:40;;;;;;;12.93;6.15;;;5.40;99.90;;;;;;5016504;28;20124;-73
2022/03/20 00:27:07;;;;;;;10.43;5.97;;;5.30;99.90;;;;;;5034131;28;20045;-73
2022/03/20 00:29:33;;;;;;;11.77;5.75;;;5.30;99.90;;;;;;5016520;28;20033;-74
2022/03/20 00:31:58;;;;;;;10.43;5.63;;;5.30;99.90;;;;;;5033797;28;20288;-74
2022/03/20 00:34:24;;;;;;;10.35;5.10;;;5.20;99.90;;;;;;5016234;28;20375;-74
2022/03/20 00:36:49;;;;;;;11.90;5.15;;;5.20;99.90;;;;;;5017358;28;20111;-74
2022/03/20 00:39:15;;;;;;;9.32;5.68;;;5.20;99.90;;;;;;5029307;28;20042;-74
2022/03/20 00:41:40;;;;;;;10.95;6.00;;;5.20;99.90;;;;;;5032968;28;20065;-74
2022/03/20 00:44:06;;;;;;;10.98;5.85;;;5.10;99.90;;;;;;5017433;28;20042;-74
2022/03/20 00:46:32;;;;;;;10.50;5.88;;;5.10;99.90;;;;;;5015107;28;20088;-73
2022/03/20 00:48:57;;;;;;;11.25;5.25;;;5.10;99.90;;;;;;5033356;28;20505;-74
2022/03/20 00:51:23;;;;;;;12.82;6.38;;;5.20;99.90;;;;;;5032380;28;20394;-74
2022/03/20 00:53:48;;;;;;;12.43;6.20;;;5.00;99.90;;;;;;5033377;28;20038;-74
2022/03/20 00:56:14;;;;;;;13.05;6.00;;;5.00;99.90;;;;;;5012947;28;20038;-74
2022/03/20 00:58:40;;;;;;;11.10;6.13;;;5.10;99.90;;;;;;5013668;28;20600;-74
2022/03/20 01:01:09;;;;;;;10.43;5.43;;;5.00;99.90;;;;;;5025555;28;20052;-73
2022/03/20 01:03:35;;;;;;;10.82;6.35;;;5.00;99.90;;;;;;5033525;28;20041;-73
2022/03/20 01:06:01;;;;;;;12.23;5.80;;;5.00;99.90;;;;;;5032138;28;20125;-73
2022/03/20 01:08:27;;;;;;;13.05;6.40;;;5.00;99.90;;;;;;5031176;28;20553;-74
2022/03/20 01:10:52;;;;;;;13.25;6.82;;;5.00;99.90;;;;;;5012361;28;20410;-73
2022/03/20 01:13:18;;;;;;;10.45;6.07;;;4.90;99.90;;;;;;5030522;28;20033;-73
2022/03/20 01:15:44;;;;;;;11.95;5.93;;;4.80;99.90;;;;;;5015324;28;20375;-74
2022/03/20 01:18:10;;;;;;;11.23;6.00;;;4.70;99.90;;;;;;5032962;28;20037;-73
2022/03/20 01:20:36;;;;;;;11.68;6.45;;;4.70;99.90;;;;;;5032063;28;20037;-73
2022/03/20 01:23:02;;;;;;;12.77;6.28;;;4.80;99.90;;;;;;5016671;28;20041;-73
2022/03/20 01:25:30;;;;;;;13.70;6.50;;;4.80;99.90;;;;;;5015844;28;20029;-73
2022/03/20 01:27:55;;;;;;;11.73;5.78;;;4.70;99.90;;;;;;5014391;28;20041;-73
2022/03/20 01:30:21;;;;;;;12.15;6.43;;;4.70;99.90;;;;;;5012230;28;20121;-74
2022/03/20 01:32:47;;;;;;;12.15;6.00;;;4.70;99.90;;;;;;5013086;28;20463;-73
2022/03/20 01:35:13;;;;;;;12.68;6.63;;;4.60;99.90;;;;;;5016174;28;20080;-73
2022/03/20 01:37:41;;;;;;;11.38;5.90;;;4.50;99.90;;;;;;5032858;28;20390;-73
2022/03/20 01:40:08;;;;;;;11.90;5.53;;;4.70;99.90;;;;;;5015236;28;20037;-73
2022/03/20 01:42:38;;;;;;;13.68;6.75;;;4.70;99.90;;;;;;5032347;28;20053;-74
2022/03/20 01:45:18;;;;;;;11.43;5.45;;;4.70;99.90;;;;;;5014618;28;21587;-73
2022/03/20 01:47:47;;;;;;;12.98;6.90;;;4.70;99.90;;;;;;5032750;28;20041;-73
2022/03/20 01:50:13;;;;;;;14.25;6.82;;;4.60;99.90;;;;;;5031187;28;20045;-73
2022/03/20 01:52:39;;;;;;;13.52;6.50;;;4.60;99.90;;;;;;5014927;28;20040;-74
2022/03/20 01:55:07;;;;;;;10.95;6.65;;;4.70;99.90;;;;;;5014962;28;20025;-73
2022/03/20 01:57:36;;;;;;;11.13;6.47;;;4.50;99.90;;;;;;5016096;28;20398;-73
2022/03/20 02:00:04;;;;;;;13.05;5.38;;;4.60;99.90;;;;;;5014873;28;20041;-73
2022/03/20 02:02:29;;;;;;;12.02;6.55;;;4.60;99.90;;;;;;5015225;28;20402;-73
2022/03/20 02:04:55;;;;;;;11.02;5.75;;;4.60;99.90;;;;;;5030136;28;20041;-73
2022/03/20 02:07:22;;;;;;;12.13;6.53;;;4.50;99.90;;;;;;5032193;28;20044;-73
2022/03/20 02:09:48;;;;;;;14.55;6.30;;;4.40;99.90;;;;;;5013808;28;20042;-73
2022/03/20 02:12:14;;;;;;;12.98;6.30;;;4.50;99.90;;;;;;5032254;28;20040;-73
2022/03/20 02:14:40;;;;;;;12.23;6.13;;;4.40;99.90;;;;;;5031326;28;20103;-73
2022/03/20 02:17:07;;;;;;;11.45;6.75;;;4.30;99.90;;;;;;5032062;28;20506;-73
2022/03/20 02:19:36;;;;;;;11.90;6.35;;;4.30;99.90;;;;;;5014781;28;20049;-74
2022/03/20 02:22:03;;;;;;;11.95;6.45;;;4.40;99.90;;;;;;5014782;28;20037;-73
2022/03/20 02:24:36;;;;;;;11.32;6.47;;;4.30;99.90;;;;;;5029102;28;20378;-73
2022/03/20 02:27:23;;;;;;;13.38;7.10;;;4.20;99.90;;;;;;5031880;28;20072;-73
2022/03/20 02:29:56;;;;;;;13.05;6.63;;;4.10;99.90;;;;;;5010775;28;20045;-74
2022/03/20 02:32:32;;;;;;;13.77;6.75;;;4.10;99.90;;;;;;4995743;28;20042;-74
2022/03/20 02:35:04;;;;;;;15.30;7.43;;;4.20;99.90;;;;;;5019873;28;20507;-74
2022/03/20 02:37:31;;;;;;;13.70;7.55;;;4.20;99.90;;;;;;5012076;28;20129;-74
2022/03/20 02:40:03;;;;;;;14.70;7.45;;;4.10;99.90;;;;;;5004124;28;20037;-74
2022/03/20 02:42:29;;;;;;;;;;;4.20;99.90;;;;;;5015611;28;20053;-73
2022/03/20 02:45:07;;;;;;;12.88;6.25;;;4.10;99.90;;;;;;5047248;28;19917;-74
2022/03/20 02:47:39;;;;;;;15.73;8.25;;;4.10;99.90;;;;;;5015589;28;20080;-74
2022/03/20 02:50:13;;;;;;;15.50;7.72;;;4.20;99.90;;;;;;5029733;28;20037;-74
2022/03/20 02:52:46;;;;;;;13.50;6.97;;;4.10;99.90;;;;;;5031635;28;20083;-74
2022/03/20 02:55:13;;;;;;;13.60;7.88;;;4.00;99.90;;;;;;5013268;28;20029;-74
2022/03/20 02:57:38;;;;;;;15.50;8.73;;;3.90;99.90;;;;;;5032982;28;20049;-74
2022/03/20 03:00:06;;;;;;;12.63;7.20;;;4.00;99.90;;;;;;5029692;28;20521;-74
2022/03/20 03:02:37;;;;;;;14.02;8.15;;;4.10;99.90;;;;;;5011849;28;20077;-73
2022/03/20 03:05:03;;;;;;;15.05;7.47;;;4.10;99.90;;;;;;5027005;28;20517;-74
2022/03/20 03:07:30;;;;;;;15.75;8.60;;;4.10;99.90;;;;;;5031948;28;20153;-74
2022/03/20 03:12:41;;;;;;;15.93;7.22;;;3.90;99.90;;;;;;5031463;28;20037;-74
2022/03/20 03:15:19;;;;;;;16.85;7.80;;;3.90;99.90;;;;;;5030650;28;20092;-73
2022/03/20 03:17:46;;;;;;;15.82;7.75;;;4.00;99.90;;;;;;5031771;28;20132;-73
2022/03/20 03:20:12;;;;;;;15.23;7.32;;;3.80;99.90;;;;;;5014196;28;20494;-74
2022/03/20 03:22:38;;;;;;;14.50;8.63;;;3.90;99.90;;;;;;5030232;28;20092;-74
2022/03/20 03:25:05;;;;;;;15.63;8.52;;;3.80;99.90;;;;;;5030499;28;20038;-74
2022/03/20 03:27:31;;;;;;;12.20;6.97;;;3.80;99.90;;;;;;5015225;28;20371;-73
2022/03/20 03:29:57;;;;;;;14.43;7.00;;;3.80;99.90;;;;;;5029352;28;20121;-74
2022/03/20 03:32:23;;;;;;;14.50;8.40;;;3.70;99.90;;;;;;5014820;28;20167;-74
2022/03/20 03:37:32;;;;;;;16.42;8.18;;;3.60;99.90;;;;;;5048159;28;20473;-74
2022/03/20 03:40:03;;;;;;;13.55;7.55;;;3.70;99.90;;;;;;5032188;28;20128;-74
2022/03/20 03:42:32;;;;;;;17.27;9.13;;;3.60;99.90;;;;;;5017261;28;20049;-74
2022/03/20 03:44:58;;;;;;;14.82;9.10;;;3.50;99.90;;;;;;5033595;28;20414;-73
2022/03/20 03:47:24;;;;;;;16.85;9.07;;;3.40;99.90;;;;;;5034709;28;20072;-74
2022/03/20 03:49:50;;;;;;;13.60;8.52;;;3.40;99.90;;;;;;5014102;28;20038;-73
2022/03/20 03:52:16;;;;;;;15.48;8.23;;;3.60;99.90;;;;;;5028386;28;20072;-74
2022/03/20 03:54:42;;;;;;;17.70;9.75;;;3.40;99.90;;;;;;5016918;28;20064;-74
2022/03/20 03:57:08;;;;;;;14.82;9.23;;;3.40;99.90;;;;;;5032499;28;20149;-73
2022/03/20 03:59:34;;;;;;;17.20;9.73;;;3.40;99.90;;;;;;5018081;28;20086;-73
2022/03/20 04:02:00;;;;;;;15.82;9.50;;;3.50;99.90;;;;;;5028668;28;20128;-73
2022/03/20 04:04:27;;;;;;;20.15;9.88;;;3.40;99.90;;;;;;4998498;28;20402;-73
2022/03/20 04:06:53;;;;;;;17.27;9.43;;;3.50;99.90;;;;;;5028706;28;20045;-73
2022/03/20 04:09:19;;;;;;;17.08;10.20;;;3.30;99.90;;;;;;5048805;28;20071;-73
2022/03/20 04:11:45;;;;;;;14.48;8.85;;;3.40;99.90;;;;;;5049914;28;20122;-74
2022/03/20 04:14:11;;;;;;;18.00;10.13;;;3.40;99.90;;;;;;5034215;28;20044;-73
2022/03/20 04:16:37;;;;;;;14.45;9.27;;;3.40;99.90;;;;;;5032007;28;20044;-73
2022/03/20 04:19:02;;;;;;;15.57;9.98;;;3.40;99.90;;;;;;5033096;28;20045;-73
2022/03/20 04:21:29;;;;;;;18.52;9.73;;;3.30;99.90;;;;;;5021886;28;20140;-73
2022/03/20 04:23:55;;;;;;;14.63;8.38;;;3.40;99.90;;;;;;5014240;28;20133;-73
2022/03/20 04:26:21;;;;;;;17.38;10.13;;;3.40;99.90;;;;;;5028058;28;20069;-73
2022/03/20 04:28:48;;;;;;;16.98;9.50;;;3.40;99.90;;;;;;5050775;28;20092;-73
2022/03/20 04:31:15;;;;;;;16.90;10.07;;;3.40;99.90;;;;;;5015894;28;20042;-73
2022/03/20 04:33:53;;;;;;;15.27;9.43;;;3.40;99.90;;;;;;5017284;28;20083;-73
2022/03/20 04:36:23;;;;;;;17.88;10.55;;;3.50;99.90;;;;;;5032743;28;20494;-73
2022/03/20 04:38:50;;;;;;;16.15;10.50;;;3.50;99.90;;;;;;5034104;28;20394;-73
2022/03/20 04:41:17;;;;;;;17.52;10.50;;;3.30;99.90;;;;;;5015275;28;20397;-73
2022/03/20 04:43:44;;;;;;;16.67;9.38;;;3.30;99.90;;;;;;5017197;28;20525;-73
2022/03/20 04:46:10;;;;;;;18.88;10.45;;;3.40;99.90;;;;;;5016360;28;20044;-73
2022/03/20 04:59:31;;;;;;;19.80;11.00;;;3.10;99.90;;;;;;5050558;28;20498;-74
2022/03/20 05:01:57;;;;;;;19.00;10.45;;;3.10;99.90;;;;;;5033688;28;20041;-73
2022/03/20 05:04:23;;;;;;;18.52;10.40;;;3.00;99.90;;;;;;5049830;28;20053;-73
2022/03/20 05:06:48;;;;;;;18.70;12.20;;;3.20;99.90;;;;;;5030115;28;20038;-73
2022/03/20 05:14:44;;;;;;;18.30;11.68;;;3.10;99.90;;;;;;5032228;28;20049;-73
2022/03/20 05:17:10;;;;;;;19.67;12.13;;;3.00;99.90;;;;;;5015779;28;20029;-73
2022/03/20 05:19:37;;;;;;;21.60;11.07;;;3.00;99.90;;;;;;5032983;28;20096;-73
2022/03/20 05:22:04;;;;;;;20.33;11.98;;;3.10;99.90;;;;;;5031837;28;20128;-73
2022/03/20 05:24:30;;;;;;;19.55;11.73;;;2.90;99.90;;;;;;5049706;28;20470;-73
2022/03/20 05:26:56;;;;;;;19.42;12.15;;;2.90;99.90;;;;;;5015663;28;20054;-73
2022/03/20 05:29:22;;;;;;;18.67;11.73;;;2.90;99.90;;;;;;5015590;28;20409;-74
2022/03/20 05:31:49;;;;;;;18.55;11.13;;;2.90;99.90;;;;;;5015594;28;20037;-73
2022/03/20 05:34:16;;;;;;;18.77;11.38;;;2.90;99.90;;;;;;5016061;28;20041;-73
2022/03/20 05:36:42;;;;;;;19.30;12.50;;;2.90;99.90;;;;;;5029314;28;20034;-73
2022/03/20 05:39:08;;;;;;;19.67;12.93;;;2.80;99.90;;;;;;5012025;28;20041;-73
2022/03/20 05:41:49;;;;;;;20.42;13.50;;;2.80;99.90;;;;;;5031346;28;20060;-73
2022/03/20 05:44:17;;;;;;;17.37;10.30;;;2.80;99.90;;;;;;5015148;28;20497;-73
2022/03/20 05:46:46;;;;;;;17.98;11.32;;;2.90;99.90;;;;;;5032454;28;20272;-73
2022/03/20 05:49:15;;;;;;;20.08;12.73;;;2.90;99.90;;;;;;5011920;28;20042;-73
2022/03/20 05:51:40;;;;;;;17.80;10.43;;;2.90;99.90;;;;;;5042767;28;20045;-74
2022/03/20 05:54:07;;;;;;;19.52;11.43;;;2.90;99.90;;;;;;5030598;28;20041;-73
2022/03/20 05:59:17;;;;;;;18.13;12.25;;;3.00;99.90;;;;;;5047855;28;20045;-73
2022/03/20 06:01:43;;;;;;;19.67;13.30;;;2.90;99.90;;;;;;5014745;28;20033;-73
2022/03/20 06:04:09;;;;;;;21.38;13.75;;;2.90;99.90;;;;;;5015721;28;20098;-73
2022/03/20 06:06:36;;;;;;;20.48;12.63;;;3.00;99.90;;;;;;5031159;28;20489;-73
2022/03/20 06:09:02;;;;;;;21.75;13.98;;;2.90;99.90;;;;;;5047657;28;20045;-73
2022/03/20 06:11:28;;;;;;;20.73;11.98;;;2.80;99.90;;;;;;5031376;28;20063;-73
2022/03/20 06:13:53;;;;;;;23.27;14.18;;;3.00;99.90;;;;;;5032242;28;20048;-73
2022/03/20 06:16:21;;;;;;;22.98;14.57;;;3.00;99.90;;;;;;5030568;28;20556;-73
2022/03/20 06:18:47;;;;;;;20.77;12.82;;;3.00;99.90;;;;;;5031060;28;20033;-73
2022/03/20 06:21:13;;;;;;;23.45;13.82;;;3.00;99.90;;;;;;5014691;28;20521;-73
2022/03/20 06:23:39;;;;;;;20.45;12.75;;;3.00;99.90;;;;;;5015547;28;20048;-73
2022/03/20 06:26:06;;;;;;;22.95;13.93;;;3.00;99.90;;;;;;5029331;28;20041;-73
2022/03/20 06:28:32;;;;;;;19.52;12.48;;;3.10;99.90;;;;;;5046137;28;20029;-73
2022/03/20 06:30:59;;;;;;;22.20;13.30;;;3.00;99.90;;;;;;5029860;28;20048;-73
2022/03/20 06:33:27;;;;;;;19.65;13.05;;;3.10;99.90;;;;;;5014351;28;20502;-74
2022/03/20 06:35:54;;;;;;;21.45;13.50;;;3.00;99.90;;;;;;5046350;28;20044;-74
2022/03/20 06:38:20;;;;;;;20.70;12.65;;;3.10;99.90;;;;;;5025546;28;20474;-74
2022/03/20 06:40:46;;;;;;;23.02;13.88;;;3.20;99.90;;;;;;5046576;28;20041;-73
2022/03/20 06:43:13;;;;;;;26.55;15.25;;;3.20;99.90;;;;;;5030271;28;20057;-73
2022/03/20 06:45:41;;;;;;;22.35;14.60;;;3.20;99.90;;;;;;5013274;28;20053;-73
2022/03/20 06:48:07;;;;;;;22.10;14.48;;;3.10;99.90;;;;;;5031599;28;20041;-73
2022/03/20 06:50:33;;;;;;;22.92;15.07;;;3.30;99.90;;;;;;5030863;28;20048;-73
2022/03/20 06:53:02;;;;;;;20.98;14.32;;;3.20;99.90;;;;;;5024571;28;20045;-74
2022/03/20 06:55:30;;;;;;;22.45;14.27;;;3.20;99.90;;;;;;5030389;28;20046;-73
2022/03/20 06:57:56;;;;;;;22.20;14.25;;;3.20;99.90;;;;;;5047678;28;20405;-73
2022/03/20 07:00:22;;;;;;;22.20;13.65;;;3.10;99.90;;;;;;5015130;28;20038;-73
2022/03/20 07:02:48;;;;;;;18.98;12.95;;;3.20;99.90;;;;;;5029498;28;20091;-73
2022/03/20 07:05:13;;;;;;;22.50;15.38;;;3.40;99.90;;;;;;5028654;28;20049;-73
2022/03/20 07:07:40;;;;;;;22.08;14.20;;;3.50;99.90;;;;;;5028848;28;20049;-74
2022/03/20 07:10:07;;;;;;;18.88;12.52;;;3.40;99.90;;;;;;5034731;28;20490;-74
2022/03/20 07:12:33;;;;;;;22.88;13.55;;;3.50;99.90;;;;;;5014300;28;20064;-74
2022/03/20 07:14:59;;;;;;;23.23;15.02;;;3.50;99.90;;;;;;5032174;28;20087;-73
2022/03/20 07:17:25;;;;;;;20.02;13.45;;;3.50;99.90;;;;;;5033732;28;20554;-74
2022/03/20 07:19:52;;;;;;;21.08;14.23;;;3.50;99.90;;;;;;5029266;28;20033;-74
2022/03/20 07:22:19;;;;;;;20.00;13.60;;;3.60;99.90;;;;;;5016580;28;20049;-74
2022/03/20 07:24:45;;;;;;;22.00;13.50;;;3.60;99.90;;;;;;5015656;28;20048;-74
2022/03/20 07:29:57;;;;;;;21.70;14.90;;;3.80;99.90;;;;;;5033898;28;20136;-74
2022/03/20 07:32:23;;;;;;;22.42;15.23;;;3.80;99.90;;;;;;5034641;28;20041;-74
2022/03/20 07:34:50;;;;;;;24.15;14.07;;;3.80;99.90;;;;;;5016617;28;20033;-74
2022/03/20 07:37:17;;;;;;;19.95;11.18;;;3.90;99.90;;;;;;5033743;28;20546;-74
2022/03/20 07:39:48;;;;;;;21.40;12.18;;;3.90;99.90;;;;;;5031752;28;20037;-74
2022/03/20 07:42:18;;;;;;;21.48;14.30;;;4.00;99.90;;;;;;5018231;28;20054;-73
2022/03/20 07:44:44;;;;;;;20.05;11.75;;;4.10;99.90;;;;;;5016596;28;20065;-74
2022/03/20 07:47:17;;;;;;;22.10;13.70;;;4.20;99.90;;;;;;5051069;28;20046;-74
2022/03/20 07:49:43;;;;;;;21.48;13.27;;;4.30;99.90;;;;;;5050756;28;20095;-74
2022/03/20 07:52:09;;;;;;;20.45;11.85;;;4.40;99.90;;;;;;5034238;28;20496;-73
2022/03/20 07:54:36;;;;;;;16.00;10.82;;;4.50;99.90;;;;;;5050839;28;20037;-74
2022/03/20 07:57:03;;;;;;;22.58;13.45;;;4.70;99.90;;;;;;5034646;28;20080;-74
2022/03/20 07:59:28;;;;;;;22.20;14.05;;;4.70;99.90;;;;;;5033680;28;20049;-74
2022/03/20 08:01:54;;;;;;;22.00;15.13;;;4.60;99.90;;;;;;5017590;28;20108;-74
2022/03/20 08:04:20;;;;;;;25.83;17.08;;;4.70;99.90;;;;;;5032243;28;20406;-74
2022/03/20 08:06:45;;;;;;;19.27;13.77;;;4.70;98.40;;;;;;5014185;28;20104;-74
2022/03/20 08:09:11;;;;;;;21.25;13.50;;;4.80;99.60;;;;;;5020170;28;20033;-74
2022/03/20 08:11:37;;;;;;;22.73;14.18;;;5.00;99.00;;;;;;5049909;28;20099;-74
2022/03/20 08:14:07;;;;;;;22.52;15.63;;;5.00;98.80;;;;;;5033168;28;20041;-74
2022/03/20 08:16:36;;;;;;;23.63;14.32;;;5.00;97.20;;;;;;5030544;28;20517;-74
2022/03/20 08:19:01;;;;;;;23.48;13.70;;;5.10;99.10;;;;;;5018363;28;20034;-74
2022/03/20 08:21:28;;;;;;;24.70;16.83;;;5.10;98.90;;;;;;5017452;28;20083;-74
2022/03/20 08:23:54;;;;;;;23.60;15.18;;;5.30;97.90;;;;;;5029493;28;20073;-74
2022/03/20 08:26:20;;;;;;;23.88;14.80;;;5.30;97.30;;;;;;5031106;28;20529;-74
2022/03/20 08:28:46;;;;;;;22.67;15.73;;;5.40;96.10;;;;;;5016984;28;20041;-74
2022/03/20 08:31:12;;;;;;;22.60;13.27;;;5.60;97.40;;;;;;5016959;28;20080;-75
2022/03/20 08:33:40;;;;;;;25.73;17.65;;;5.60;96.40;;;;;;5033708;28;20124;-74
2022/03/20 08:36:07;;;;;;;24.95;15.77;;;5.40;91.80;;;;;;5049542;28;20053;-74
2022/03/20 08:38:33;;;;;;;23.38;12.30;;;5.60;93.50;;;;;;5027899;28;20034;-74
2022/03/20 08:40:59;;;;;;;23.70;15.43;;;5.60;95.30;;;;;;5032675;28;20037;-74
2022/03/20 08:43:24;;;;;;;26.20;17.27;;;5.70;95.60;;;;;;5016678;28;20054;-74
2022/03/20 08:45:50;;;;;;;20.45;12.43;;;5.80;92.00;;;;;;5031373;28;20191;-74
2022/03/20 08:48:18;;;;;;;24.45;15.40;;;6.00;93.10;;;;;;5029038;28;20303;-74
2022/03/20 08:50:48;;;;;;;23.10;14.80;;;6.00;92.70;;;;;;5009297;28;20046;-73
2022/03/20 08:53:18;;;;;;;21.88;13.90;;;6.00;90.10;;;;;;5030470;28;20044;-74
2022/03/20 08:55:47;;;;;;;20.80;14.73;;;6.10;93.20;;;;;;5028981;28;20034;-74
2022/03/20 08:58:14;;;;;;;22.55;16.25;;;6.20;93.20;;;;;;5049613;28;20043;-73
2022/03/20 09:00:40;;;;;;;25.25;15.32;;;6.10;89.30;;;;;;5015652;28;20120;-74
2022/03/20 09:03:06;;;;;;;22.05;14.13;;;6.20;91.60;;;;;;5013304;28;20042;-75
2022/03/20 09:05:32;;;;;;;26.02;15.65;;;6.40;94.80;;;;;;5031825;28;20040;-74
2022/03/20 09:07:58;;;;;;;22.73;14.70;;;6.50;92.30;;;;;;5047900;28;20041;-73
2022/03/20 09:10:25;;;;;;;22.52;14.93;;;6.70;92.20;;;;;;5029901;28;20045;-73
2022/03/20 09:12:55;;;;;;;25.08;16.90;;;6.70;91.00;;;;;;5032646;28;20421;-73
2022/03/20 09:15:22;;;;;;;21.35;13.32;;;6.70;88.80;;;;;;5025624;28;20041;-74
2022/03/20 09:20:35;;;;;;;21.88;13.05;;;7.00;87.30;;;;;;5030408;28;20494;-74
2022/03/20 09:23:01;;;;;;;24.95;16.17;;;7.30;87.00;;;;;;5031778;28;20077;-73
2022/03/20 09:25:26;;;;;;;24.23;16.27;;;7.20;86.60;;;;;;5027145;28;20077;-73
2022/03/20 09:27:52;;;;;;;24.27;15.90;;;7.20;87.40;;;;;;5025224;28;20104;-74
2022/03/20 09:30:21;;;;;;;21.10;11.23;;;7.40;87.40;;;;;;5011536;28;20120;-74
2022/03/20 09:32:48;;;;;;;26.50;16.92;;;7.60;82.30;;;;;;5022495;28;20079;-74
2022/03/20 09:35:14;;;;;;;27.05;17.08;;;7.80;80.90;;;;;;5015047;28;20041;-74
2022/03/20 09:37:40;;;;;;;26.73;16.55;;;7.70;74.80;;;;;;5042501;28;20067;-73
2022/03/20 09:40:06;;;;;;;23.85;16.10;;;7.70;80.10;;;;;;5018856;28;20045;-73
2022/03/20 09:42:34;;;;;;;21.85;13.73;;;7.80;80.60;;;;;;5010830;28;20058;-74
2022/03/20 09:45:00;;;;;;;24.42;15.93;;;7.90;78.60;;;;;;5047745;28;20045;-73
2022/03/20 09:47:26;;;;;;;23.77;13.43;;;7.90;74.10;;;;;;5031458;28;20406;-74
2022/03/20 09:49:53;;;;;;;20.17;11.85;;;8.20;75.00;;;;;;5046916;28;20041;-74
2022/03/20 09:52:19;;;;;;;23.13;12.40;;;8.30;73.00;;;;;;5014652;28;20088;-74
2022/03/20 09:54:45;;;;;;;28.33;18.00;;;8.30;72.50;;;;;;5012986;28;20034;-74
2022/03/20 09:57:11;;;;;;;21.50;13.77;;;8.40;69.50;;;;;;5011311;28;20030;-74
2022/03/20 09:59:38;;;;;;;25.88;18.48;;;8.60;69.80;;;;;;5040287;28;20125;-74
2022/03/20 10:02:06;;;;;;;23.02;16.40;;;8.60;69.50;;;;;;5028400;28;20482;-74
2022/03/20 10:04:34;;;;;;;21.55;14.30;;;8.60;70.20;;;;;;5010600;28;20037;-74
2022/03/20 10:07:00;;;;;;;24.73;16.58;;;8.70;72.00;;;;;;5012391;28;20037;-74
2022/03/20 10:09:26;;;;;;;20.48;13.43;;;8.90;68.70;;;;;;5010696;28;20504;-74
2022/03/20 10:11:57;;;;;;;27.55;18.05;;;8.90;68.00;;;;;;5030342;28;20041;-74
2022/03/20 10:14:26;;;;;;;25.38;16.05;;;8.90;64.90;;;;;;5028398;28;20552;-73
2022/03/20 10:17:13;;;;;;;25.42;15.07;;;9.00;67.40;;;;;;5028258;28;20474;-74
2022/03/20 10:19:39;;;;;;;22.63;14.48;;;9.10;66.50;;;;;;5025661;28;20045;-74
2022/03/20 10:22:07;;;;;;;24.25;15.13;;;9.10;65.10;;;;;;5015494;28;20048;-74
2022/03/20 10:24:38;;;;;;;26.25;17.83;;;9.20;63.50;;;;;;5028233;28;20064;-74
2022/03/20 10:27:05;;;;;;;25.63;17.52;;;9.20;65.10;;;;;;5028412;28;20041;-74
2022/03/20 10:29:32;;;;;;;25.10;17.50;;;9.40;62.40;;;;;;5021262;28;20371;-74
2022/03/20 10:32:06;;;;;;;28.08;18.08;;;9.50;64.40;;;;;;5044602;28;20090;-74
2022/03/20 10:34:49;;;;;;;27.25;16.50;;;9.60;61.40;;;;;;5043580;28;20045;-74
2022/03/20 10:37:15;;;;;;;;;;;9.60;61.70;;;;;;5029115;28;20042;-74
2022/03/20 10:39:42;;;;;;;21.48;13.68;;;9.80;62.40;;;;;;5026773;28;19923;-73
2022/03/20 10:42:15;;;;;;;29.40;18.30;;;9.80;62.50;;;;;;5012664;28;20425;-74
2022/03/20 10:44:40;;;;;;;;;;;9.90;61.60;;;;;;5042568;28;20051;-74
2022/03/20 10:47:16;;;;;;;26.10;18.95;;;9.60;59.20;;;;;;5028481;28;20316;-74
2022/03/20 10:50:07;;;;;;;23.77;14.73;;;9.70;59.80;;;;;;5033014;28;20049;-75
2022/03/20 10:52:36;;;;;;;25.98;18.17;;;9.90;60.50;;;;;;5033732;28;20045;-74
2022/03/20 10:55:09;;;;;;;24.65;17.95;;;9.90;60.60;;;;;;5014155;28;20121;-74
2022/03/20 10:57:36;;;;;;;26.67;18.90;;;9.90;58.30;;;;;;5032024;28;20042;-74
2022/03/20 11:00:05;;;;;;;25.38;17.83;;;10.00;60.40;;;;;;5017321;28;20041;-73
2022/03/20 11:02:31;;;;;;;24.33;15.02;;;10.00;59.40;;;;;;5017343;28;20044;-74
2022/03/20 11:04:57;;;;;;;25.33;17.40;;;10.00;60.60;;;;;;5036231;28;20041;-74
2022/03/20 11:07:23;;;;;;;27.00;18.40;;;10.10;60.70;;;;;;5032569;28;20563;-74
2022/03/20 11:09:54;;;;;;;23.95;16.60;;;10.20;60.00;;;;;;5032852;28;20064;-74
2022/03/20 11:12:26;;;;;;;27.50;17.73;;;10.40;60.60;;;;;;5034655;28;20536;-74
2022/03/20 11:14:54;;;;;;;26.02;18.00;;;10.50;59.20;;;;;;5018883;28;20030;-74
2022/03/20 11:17:23;;;;;;;28.63;21.35;;;10.30;59.40;;;;;;5019077;28;20030;-74
2022/03/20 11:19:53;;;;;;;23.65;15.07;;;10.00;56.20;;;;;;5030879;28;20038;-74
2022/03/20 11:22:21;;;;;;;28.17;18.23;;;10.40;60.40;;;;;;5020316;28;20042;-74
2022/03/20 11:24:50;;;;;;;26.40;19.23;;;10.40;58.10;;;;;;5014671;28;20499;-74
2022/03/20 11:27:32;;;;;;;30.65;18.63;;;10.50;59.70;;;;;;5020962;28;20406;-74
2022/03/20 11:30:02;;;;;;;27.70;18.98;;;10.50;56.90;;;;;;5040429;28;20034;-74
2022/03/20 11:32:29;;;;;;;22.55;16.92;;;10.60;58.60;;;;;;5048619;28;20067;-74
2022/03/20 11:34:55;;;;;;;20.95;13.60;;;10.60;58.60;;;;;;5020149;28;20038;-74
2022/03/20 11:37:21;;;;;;;22.88;16.58;;;10.70;58.40;;;;;;5017560;28;20084;-74
2022/03/20 11:40:25;;;;;;;24.10;16.20;;;10.70;59.00;;;;;;5021017;28;20494;-74
2022/03/20 11:43:16;;;;;;;24.98;14.80;;;10.80;58.40;;;;;;5013925;28;20054;-73
2022/03/20 11:45:41;;;;;;;20.77;14.45;;;10.90;58.60;;;;;;5020396;28;20044;-74
2022/03/20 11:48:15;;;;;;;22.30;15.23;;;10.90;57.80;;;;;;5014098;28;20046;-74
2022/03/20 11:50:43;;;;;;;27.10;14.93;;;11.00;57.40;;;;;;5037175;28;20100;-74
2022/03/20 11:53:10;;;;;;;25.52;15.43;;;11.00;56.90;;;;;;5037900;28;20042;-74
2022/03/20 11:55:40;;;;;;;24.83;14.60;;;11.00;56.40;;;;;;5018486;28;20104;-74
2022/03/20 11:58:10;;;;;;;25.38;15.40;;;11.00;55.70;;;;;;5021448;28;20081;-74
2022/03/20 12:00:39;;;;;;;27.60;17.42;;;11.00;56.50;;;;;;5016089;28;20076;-74
2022/03/20 12:03:14;;;;;;;27.30;17.15;;;11.00;56.50;;;;;;5027252;28;20041;-74
2022/03/20 12:05:55;;;;;;;26.15;18.52;;;11.00;56.90;;;;;;5007037;28;20044;-74
2022/03/20 12:08:34;;;;;;;26.60;18.13;;;10.90;56.40;;;;;;5014119;28;20437;-74
2022/03/20 12:11:19;;;;;;;23.83;17.02;;;10.90;57.40;;;;;;5017636;28;20510;-74
2022/03/20 12:13:51;;;;;;;22.05;15.65;;;11.00;58.20;;;;;;5042787;28;20091;-74
2022/03/20 12:16:42;;;;;;;23.52;13.00;;;11.10;56.50;;;;;;5013985;28;20041;-74
2022/03/20 12:19:09;;;;;;;25.40;16.02;;;11.20;56.60;;;;;;4998523;28;20038;-74
2022/03/20 12:22:10;;;;;;;20.35;13.80;;;11.20;56.80;;;;;;5017215;28;20034;-74
2022/03/20 12:24:39;;;;;;;24.70;17.97;;;11.20;55.90;;;;;;4994855;28;20045;-74
2022/03/20 12:27:20;;;;;;;29.98;18.92;;;11.10;56.40;;;;;;5024730;28;20041;-74
2022/03/20 12:29:47;;;;;;;27.30;17.55;;;11.20;54.70;;;;;;5030872;28;20046;-74
2022/03/20 12:32:13;;;;;;;25.55;17.88;;;11.30;55.10;;;;;;5014824;28;20419;-74
2022/03/20 12:35:06;;;;;;;29.45;19.05;;;11.30;55.80;;;;;;5017759;28;20079;-74
2022/03/20 12:37:39;;;;;;;27.40;18.33;;;11.30;56.20;;;;;;5012570;28;20116;-74
2022/03/20 12:40:31;;;;;;;23.77;15.90;;;11.50;54.30;;;;;;5022203;28;20094;-74
2022/03/20 12:43:08;;;;;;;26.60;20.30;;;11.50;55.90;;;;;;5013709;28;20119;-74
2022/03/20 12:45:35;;;;;;;25.38;17.45;;;11.50;55.00;;;;;;5040668;28;20358;-73
2022/03/20 12:48:10;;;;;;;23.15;15.45;;;11.40;56.10;;;;;;5021645;28;20071;-74
2022/03/20 12:50:38;;;;;;;24.48;17.13;;;11.60;55.60;;;;;;5008838;28;20043;-73
2022/03/20 12:53:07;;;;;;;25.98;18.33;;;11.60;54.60;;;;;;5017606;28;20037;-74
2022/03/20 12:55:33;;;;;;;31.08;19.48;;;11.50;56.10;;;;;;5014715;28;20406;-74
2022/03/20 12:57:59;;;;;;;25.35;19.05;;;11.50;56.30;;;;;;5012888;28;20068;-74
2022/03/20 13:00:27;;;;;;;25.98;17.52;;;11.60;56.00;;;;;;5018025;28;20495;-74
2022/03/20 13:03:16;;;;;;;24.33;16.45;;;11.70;56.00;;;;;;5027632;28;20728;-74
2022/03/20 13:05:50;;;;;;;27.40;17.05;;;11.70;56.00;;;;;;5016549;28;20081;-74
2022/03/20 13:08:24;;;;;;;26.42;19.08;;;11.60;55.60;;;;;;5022681;28;20477;-74
2022/03/20 13:10:56;;;;;;;24.83;15.35;;;11.50;56.30;;;;;;4998123;28;20042;-74
2022/03/20 13:13:30;;;;;;;22.95;14.45;;;11.40;56.30;;;;;;5034077;28;20045;-73
2022/03/20 13:15:56;;;;;;;25.60;17.95;;;11.50;55.10;;;;;;5015525;28;20073;-74